sensor_id;sensor_type;location;lat;lon;timestamp;pressure;altitude;pressure_sealevel;temperature;humidity
13422;BME280;6782;55.904;13.396;2023-09-30T00:02:35;101359.81;;;13.62;100.00
13422;BME280;6782;55.904;13.396;2023-09-30T00:05:23;101363.34;;;13.63;100.00
13422;BME280;6782;55.904;13.396;2023-09-30T00:08:19;101366.97;;;13.59;100.00
13422;BME280;6782;55.904;13.396;2023-09-30T00:11:07;101374.03;;;13.60;100.00
13422;BME280;6782;55.904;13.396;2023-09-30T00:13:59;101374.03;;;13.60;100.00
13422;BME280;6782;55.904;13.396;2023-09-30T00:16:47;101383.91;;;13.53;100.00
13422;BME280;6782;55.904;13.396;2023-09-30T00:19:35;101388.50;;;13.47;100.00
13422;BME280;6782;55.904;13.396;2023-09-30T00:22:23;101386.75;;;13.46;100.00
13422;BME280;6782;55.904;13.396;2023-09-30T00:25:12;101392.09;;;13.44;100.00
13422;BME280;6782;55.904;13.396;2023-09-30T00:28:00;101395.44;;;13.51;100.00
13422;BME280;6782;55.904;13.396;2023-09-30T00:30:55;101394.84;;;13.40;100.00
13422;BME280;6782;55.904;13.396;2023-09-30T00:33:42;101402.75;;;13.43;100.00
13422;BME280;6782;55.904;13.396;2023-09-30T00:36:30;101402.88;;;13.37;100.00
13422;BME280;6782;55.904;13.396;2023-09-30T00:39:18;101395.94;;;13.33;100.00
13422;BME280;6782;55.904;13.396;2023-09-30T00:42:23;101396.84;;;13.30;100.00
13422;BME280;6782;55.904;13.396;2023-09-30T00:45:14;101405.53;;;13.37;100.00
13422;BME280;6782;55.904;13.396;2023-09-30T00:48:18;101406.59;;;13.28;100.00
13422;BME280;6782;55.904;13.396;2023-09-30T00:51:07;101402.19;;;13.29;100.00
13422;BME280;6782;55.904;13.396;2023-09-30T00:54:19;101399.91;;;13.13;100.00
13422;BME280;6782;55.904;13.396;2023-09-30T00:57:30;101406.84;;;13.17;100.00
13422;BME280;6782;55.904;13.396;2023-09-30T01:00:18;101417.56;;;13.14;100.00
13422;BME280;6782;55.904;13.396;2023-09-30T01:03:07;101406.25;;;13.06;100.00
13422;BME280;6782;55.904;13.396;2023-09-30T01:05:58;101421.28;;;13.04;100.00
13422;BME280;6782;55.904;13.396;2023-09-30T01:08:45;101415.91;;;13.07;100.00
13422;BME280;6782;55.904;13.396;2023-09-30T01:11:33;101424.84;;;13.02;100.00
13422;BME280;6782;55.904;13.396;2023-09-30T01:14:25;101433.50;;;13.11;100.00
13422;BME280;6782;55.904;13.396;2023-09-30T01:17:13;101428.38;;;13.02;100.00
13422;BME280;6782;55.904;13.396;2023-09-30T01:20:01;101435.44;;;13.02;100.00
13422;BME280;6782;55.904;13.396;2023-09-30T01:22:54;101438.03;;;13.06;100.00
13422;BME280;6782;55.904;13.396;2023-09-30T01:25:43;101442.41;;;13.07;100.00
13422;BME280;6782;55.904;13.396;2023-09-30T01:28:36;101451.06;;;13.15;100.00
13422;BME280;6782;55.904;13.396;2023-09-30T01:31:26;101458.16;;;13.13;100.00
13422;BME280;6782;55.904;13.396;2023-09-30T01:34:15;101463.34;;;13.20;100.00
13422;BME280;6782;55.904;13.396;2023-09-30T01:37:03;101465.69;;;13.32;100.00
13422;BME280;6782;55.904;13.396;2023-09-30T01:39:57;101470.22;;;13.27;100.00
13422;BME280;6782;55.904;13.396;2023-09-30T01:42:44;101482.44;;;13.34;100.00
13422;BME280;6782;55.904;13.396;2023-09-30T01:45:37;101478.94;;;13.32;100.00
13422;BME280;6782;55.904;13.396;2023-09-30T01:48:25;101480.69;;;13.33;100.00
13422;BME280;6782;55.904;13.396;2023-09-30T01:51:12;101477.19;;;13.31;100.00
13422;BME280;6782;55.904;13.396;2023-09-30T01:54:10;101491.22;;;13.36;100.00
13422;BME280;6782;55.904;13.396;2023-09-30T01:57:00;101486.13;;;13.27;100.00
13422;BME280;6782;55.904;13.396;2023-09-30T01:59:48;101492.25;;;13.29;100.00
13422;BME280;6782;55.904;13.396;2023-09-30T02:02:38;101510.50;;;13.41;100.00
13422;BME280;6782;55.904;13.396;2023-09-30T02:05:36;101513.16;;;13.42;100.00
13422;BME280;6782;55.904;13.396;2023-09-30T02:08:24;101508.69;;;13.44;100.00
13422;BME280;6782;55.904;13.396;2023-09-30T02:11:20;101507.97;;;13.38;100.00
13422;BME280;6782;55.904;13.396;2023-09-30T02:14:12;101514.88;;;13.43;100.00
13422;BME280;6782;55.904;13.396;2023-09-30T02:17:01;101520.03;;;13.49;100.00
13422;BME280;6782;55.904;13.396;2023-09-30T02:19:48;101531.41;;;13.54;100.00
13422;BME280;6782;55.904;13.396;2023-09-30T02:22:49;101534.00;;;13.56;100.00
13422;BME280;6782;55.904;13.396;2023-09-30T02:25:37;101536.59;;;13.59;100.00
13422;BME280;6782;55.904;13.396;2023-09-30T02:28:24;101544.47;;;13.63;100.00
13422;BME280;6782;55.904;13.396;2023-09-30T02:31:15;101554.09;;;13.67;100.00
13422;BME280;6782;55.904;13.396;2023-09-30T02:34:04;101555.91;;;13.64;100.00
13422;BME280;6782;55.904;13.396;2023-09-30T02:36:52;101572.34;;;13.79;100.00
13422;BME280;6782;55.904;13.396;2023-09-30T02:39:45;101569.75;;;13.78;100.00
13422;BME280;6782;55.904;13.396;2023-09-30T02:42:35;101573.34;;;13.74;100.00
13422;BME280;6782;55.904;13.396;2023-09-30T02:45:23;101582.31;;;13.70;100.00
13422;BME280;6782;55.904;13.396;2023-09-30T02:48:13;101584.06;;;13.69;100.00
13422;BME280;6782;55.904;13.396;2023-09-30T02:51:00;101592.03;;;13.69;100.00
13422;BME280;6782;55.904;13.396;2023-09-30T02:53:49;101594.56;;;13.74;100.00
13422;BME280;6782;55.904;13.396;2023-09-30T02:56:37;101594.50;;;13.77;100.00
13422;BME280;6782;55.904;13.396;2023-09-30T02:59:26;101600.81;;;13.71;100.00
13422;BME280;6782;55.904;13.396;2023-09-30T03:02:16;101613.94;;;13.77;100.00
13422;BME280;6782;55.904;13.396;2023-09-30T03:05:07;101617.47;;;13.76;100.00
13422;BME280;6782;55.904;13.396;2023-09-30T03:07:56;101623.28;;;13.94;100.00
13422;BME280;6782;55.904;13.396;2023-09-30T03:10:45;101619.28;;;13.76;100.00
13422;BME280;6782;55.904;13.396;2023-09-30T03:13:38;101629.91;;;13.76;100.00
13422;BME280;6782;55.904;13.396;2023-09-30T03:16:29;101645.66;;;13.82;100.00
13422;BME280;6782;55.904;13.396;2023-09-30T03:19:18;101646.66;;;13.76;100.00
13422;BME280;6782;55.904;13.396;2023-09-30T03:22:14;101645.44;;;13.91;100.00
13422;BME280;6782;55.904;13.396;2023-09-30T03:25:01;101642.97;;;13.84;100.00
13422;BME280;6782;55.904;13.396;2023-09-30T03:28:06;101640.50;;;13.76;100.00
13422;BME280;6782;55.904;13.396;2023-09-30T03:31:05;101636.97;;;13.75;100.00
13422;BME280;6782;55.904;13.396;2023-09-30T03:34:16;101630.03;;;13.70;100.00
13422;BME280;6782;55.904;13.396;2023-09-30T03:37:08;101638.84;;;13.70;100.00
13422;BME280;6782;55.904;13.396;2023-09-30T03:40:09;101638.63;;;13.81;100.00
13422;BME280;6782;55.904;13.396;2023-09-30T03:43:07;101635.19;;;13.76;100.00
13422;BME280;6782;55.904;13.396;2023-09-30T03:46:10;101639.72;;;13.71;100.00
13422;BME280;6782;55.904;13.396;2023-09-30T03:49:04;101651.00;;;13.79;100.00
13422;BME280;6782;55.904;13.396;2023-09-30T03:52:07;101646.66;;;13.76;100.00
13422;BME280;6782;55.904;13.396;2023-09-30T03:55:24;101653.88;;;13.70;100.00
13422;BME280;6782;55.904;13.396;2023-09-30T03:58:17;101658.34;;;13.68;100.00
13422;BME280;6782;55.904;13.396;2023-09-30T04:01:04;101658.41;;;13.65;100.00
13422;BME280;6782;55.904;13.396;2023-09-30T04:04:03;101668.72;;;13.77;100.00
13422;BME280;6782;55.904;13.396;2023-09-30T04:06:56;101673.16;;;13.78;100.00
13422;BME280;6782;55.904;13.396;2023-09-30T04:09:55;101670.66;;;13.70;100.00
13422;BME280;6782;55.904;13.396;2023-09-30T04:12:46;101680.28;;;13.76;100.00
13422;BME280;6782;55.904;13.396;2023-09-30T04:15:33;101672.31;;;13.76;100.00
13422;BME280;6782;55.904;13.396;2023-09-30T04:18:30;101685.47;;;13.80;100.00
13422;BME280;6782;55.904;13.396;2023-09-30T04:21:19;101686.34;;;13.81;100.00
13422;BME280;6782;55.904;13.396;2023-09-30T04:24:07;101696.78;;;13.87;100.00
13422;BME280;6782;55.904;13.396;2023-09-30T04:26:55;101696.84;;;13.84;100.00
13422;BME280;6782;55.904;13.396;2023-09-30T04:29:51;101689.94;;;13.77;100.00
13422;BME280;6782;55.904;13.396;2023-09-30T04:32:39;101690.81;;;13.77;100.00
13422;BME280;6782;55.904;13.396;2023-09-30T04:35:26;101696.84;;;13.84;100.00
13422;BME280;6782;55.904;13.396;2023-09-30T04:38:23;101687.28;;;13.78;100.00
13422;BME280;6782;55.904;13.396;2023-09-30T04:41:16;101688.22;;;13.76;100.00
13422;BME280;6782;55.904;13.396;2023-09-30T04:44:05;101675.91;;;13.72;100.00
13422;BME280;6782;55.904;13.396;2023-09-30T04:46:57;101682.03;;;13.75;100.00
13422;BME280;6782;55.904;13.396;2023-09-30T04:49:46;101686.25;;;13.84;100.00
13422;BME280;6782;55.904;13.396;2023-09-30T04:52:34;101680.94;;;13.84;100.00
13422;BME280;6782;55.904;13.396;2023-09-30T04:55:27;101680.00;;;13.88;100.00
13422;BME280;6782;55.904;13.396;2023-09-30T04:58:14;101680.81;;;13.90;100.00
13422;BME280;6782;55.904;13.396;2023-09-30T05:01:03;101690.47;;;13.94;100.00
13422;BME280;6782;55.904;13.396;2023-09-30T05:04:00;101689.59;;;13.92;100.00
13422;BME280;6782;55.904;13.396;2023-09-30T05:06:48;101696.56;;;13.99;100.00
13422;BME280;6782;55.904;13.396;2023-09-30T05:09:38;101694.91;;;13.92;100.00
13422;BME280;6782;55.904;13.396;2023-09-30T05:12:29;101691.25;;;13.99;100.00
13422;BME280;6782;55.904;13.396;2023-09-30T05:15:21;101692.91;;;14.03;100.00
13422;BME280;6782;55.904;13.396;2023-09-30T05:18:11;101691.16;;;14.02;100.00
13422;BME280;6782;55.904;13.396;2023-09-30T05:21:02;101675.34;;;13.99;100.00
13422;BME280;6782;55.904;13.396;2023-09-30T05:23:49;101688.50;;;14.02;100.00
13422;BME280;6782;55.904;13.396;2023-09-30T05:26:38;101690.31;;;14.00;100.00
13422;BME280;6782;55.904;13.396;2023-09-30T05:29:27;101689.19;;;14.10;100.00
13422;BME280;6782;55.904;13.396;2023-09-30T05:32:20;101703.16;;;14.18;100.00
13422;BME280;6782;55.904;13.396;2023-09-30T05:35:08;101695.91;;;14.26;100.00
13422;BME280;6782;55.904;13.396;2023-09-30T05:38:07;101686.34;;;14.19;100.00
13422;BME280;6782;55.904;13.396;2023-09-30T05:40:56;101690.56;;;14.28;100.00
13422;BME280;6782;55.904;13.396;2023-09-30T05:43:48;101690.66;;;14.23;100.00
13422;BME280;6782;55.904;13.396;2023-09-30T05:46:35;101692.44;;;14.24;100.00
13422;BME280;6782;55.904;13.396;2023-09-30T05:49:24;101680.13;;;14.20;100.00
13422;BME280;6782;55.904;13.396;2023-09-30T05:52:12;101679.41;;;14.12;100.00
13422;BME280;6782;55.904;13.396;2023-09-30T05:55:09;101687.22;;;14.20;100.00
13422;BME280;6782;55.904;13.396;2023-09-30T05:57:57;101690.53;;;14.29;100.00
13422;BME280;6782;55.904;13.396;2023-09-30T06:00:46;101689.59;;;14.30;100.00
13422;BME280;6782;55.904;13.396;2023-09-30T06:03:39;101683.78;;;14.16;100.00
13422;BME280;6782;55.904;13.396;2023-09-30T06:06:26;101683.78;;;14.16;100.00
13422;BME280;6782;55.904;13.396;2023-09-30T06:09:14;101686.38;;;14.18;100.00
13422;BME280;6782;55.904;13.396;2023-09-30T06:12:05;101674.91;;;14.17;100.00
13422;BME280;6782;55.904;13.396;2023-09-30T06:15:16;101682.44;;;14.37;100.00
13422;BME280;6782;55.904;13.396;2023-09-30T06:18:07;101686.47;;;14.52;100.00
13422;BME280;6782;55.904;13.396;2023-09-30T06:21:07;101696.88;;;14.61;100.00
13422;BME280;6782;55.904;13.396;2023-09-30T06:23:56;101692.53;;;14.58;100.00
13422;BME280;6782;55.904;13.396;2023-09-30T06:26:44;101681.97;;;14.55;100.00
13422;BME280;6782;55.904;13.396;2023-09-30T06:29:36;101688.81;;;14.65;100.00
13422;BME280;6782;55.904;13.396;2023-09-30T06:32:24;101679.97;;;14.65;100.00
13422;BME280;6782;55.904;13.396;2023-09-30T06:35:20;101678.13;;;14.68;100.00
13422;BME280;6782;55.904;13.396;2023-09-30T06:38:09;101676.34;;;14.69;100.00
13422;BME280;6782;55.904;13.396;2023-09-30T06:40:58;101680.44;;;14.80;100.00
13422;BME280;6782;55.904;13.396;2023-09-30T06:43:45;101674.13;;;14.84;100.00
13422;BME280;6782;55.904;13.396;2023-09-30T06:46:38;101679.41;;;14.86;100.00
13422;BME280;6782;55.904;13.396;2023-09-30T06:49:26;101680.09;;;14.94;100.00
13422;BME280;6782;55.904;13.396;2023-09-30T06:52:15;101683.44;;;15.00;100.00
13422;BME280;6782;55.904;13.396;2023-09-30T06:55:26;101679.22;;;14.93;100.00
13422;BME280;6782;55.904;13.396;2023-09-30T06:58:14;101674.44;;;15.06;100.00
13422;BME280;6782;55.904;13.396;2023-09-30T07:01:07;101676.19;;;15.07;100.00
13422;BME280;6782;55.904;13.396;2023-09-30T07:04:08;101661.97;;;15.08;100.00
13422;BME280;6782;55.904;13.396;2023-09-30T07:06:57;101653.13;;;15.09;100.00
13422;BME280;6782;55.904;13.396;2023-09-30T07:09:44;101654.84;;;15.10;100.00
13422;BME280;6782;55.904;13.396;2023-09-30T07:12:31;101652.16;;;15.12;100.00
13422;BME280;6782;55.904;13.396;2023-09-30T07:15:21;101644.63;;;14.95;100.00
13422;BME280;6782;55.904;13.396;2023-09-30T07:18:10;101641.81;;;15.01;100.00
13422;BME280;6782;55.904;13.396;2023-09-30T07:20:59;101637.41;;;15.00;100.00
13422;BME280;6782;55.904;13.396;2023-09-30T07:23:47;101646.47;;;15.25;100.00
13422;BME280;6782;55.904;13.396;2023-09-30T07:26:34;101640.28;;;15.23;100.00
13422;BME280;6782;55.904;13.396;2023-09-30T07:29:21;101640.97;;;15.31;100.00
13422;BME280;6782;55.904;13.396;2023-09-30T07:32:09;101631.88;;;15.38;100.00
13422;BME280;6782;55.904;13.396;2023-09-30T07:34:56;101645.56;;;15.86;100.00
13422;BME280;6782;55.904;13.396;2023-09-30T07:37:44;101626.69;;;15.64;100.00
13422;BME280;6782;55.904;13.396;2023-09-30T07:40:32;101615.97;;;15.68;100.00
13422;BME280;6782;55.904;13.396;2023-09-30T07:43:19;101612.91;;;15.81;100.00
13422;BME280;6782;55.904;13.396;2023-09-30T07:46:06;101604.88;;;15.83;100.00
13422;BME280;6782;55.904;13.396;2023-09-30T07:48:54;101606.78;;;16.05;100.00
13422;BME280;6782;55.904;13.396;2023-09-30T07:51:41;101588.63;;;15.92;100.00
13422;BME280;6782;55.904;13.396;2023-09-30T07:54:30;101568.25;;;15.91;100.00
13422;BME280;6782;55.904;13.396;2023-09-30T07:57:17;101570.31;;;16.09;100.00
13422;BME280;6782;55.904;13.396;2023-09-30T08:00:05;101555.78;;;16.19;100.00
13422;BME280;6782;55.904;13.396;2023-09-30T08:02:55;101537.84;;;15.99;100.00
13422;BME280;6782;55.904;13.396;2023-09-30T08:05:42;101525.78;;;16.14;100.00
13422;BME280;6782;55.904;13.396;2023-09-30T08:08:29;101525.44;;;16.24;100.00
13422;BME280;6782;55.904;13.396;2023-09-30T08:11:19;101509.13;;;16.09;100.00
13422;BME280;6782;55.904;13.396;2023-09-30T08:14:07;101498.03;;;15.95;100.00
13422;BME280;6782;55.904;13.396;2023-09-30T08:16:55;101485.78;;;15.91;100.00
13422;BME280;6782;55.904;13.396;2023-09-30T08:19:42;101471.25;;;15.75;100.00
13422;BME280;6782;55.904;13.396;2023-09-30T08:22:29;101477.44;;;15.75;100.00
13422;BME280;6782;55.904;13.396;2023-09-30T08:25:17;101478.59;;;15.66;100.00
13422;BME280;6782;55.904;13.396;2023-09-30T08:28:06;101483.56;;;15.77;100.00
13422;BME280;6782;55.904;13.396;2023-09-30T08:30:55;101497.22;;;16.19;100.00
13422;BME280;6782;55.904;13.396;2023-09-30T08:33:44;101499.28;;;16.11;100.00
13422;BME280;6782;55.904;13.396;2023-09-30T08:36:32;101500.16;;;16.36;100.00
13422;BME280;6782;55.904;13.396;2023-09-30T08:39:20;101490.16;;;16.18;100.00
13422;BME280;6782;55.904;13.396;2023-09-30T08:42:09;101481.88;;;16.27;100.00
13422;BME280;6782;55.904;13.396;2023-09-30T08:44:58;101479.00;;;16.33;100.00
13422;BME280;6782;55.904;13.396;2023-09-30T08:47:46;101479.88;;;16.58;100.00
13422;BME280;6782;55.904;13.396;2023-09-30T08:50:34;101464.19;;;16.49;100.00
13422;BME280;6782;55.904;13.396;2023-09-30T08:53:22;101458.78;;;16.52;100.00
13422;BME280;6782;55.904;13.396;2023-09-30T08:56:10;101469.63;;;16.46;100.00
13422;BME280;6782;55.904;13.396;2023-09-30T08:58:59;101452.13;;;16.39;100.00
13422;BME280;6782;55.904;13.396;2023-09-30T09:01:48;101420.28;;;16.36;100.00
13422;BME280;6782;55.904;13.396;2023-09-30T09:04:35;101416.72;;;16.37;100.00
13422;BME280;6782;55.904;13.396;2023-09-30T09:07:24;101421.88;;;16.66;100.00
13422;BME280;6782;55.904;13.396;2023-09-30T09:10:12;101428.81;;;16.94;100.00
13422;BME280;6782;55.904;13.396;2023-09-30T09:13:00;101420.78;;;17.17;100.00
13422;BME280;6782;55.904;13.396;2023-09-30T09:15:47;101391.66;;;17.12;100.00
13422;BME280;6782;55.904;13.396;2023-09-30T09:18:38;101389.03;;;17.11;100.00
13422;BME280;6782;55.904;13.396;2023-09-30T09:21:26;101357.72;;;17.16;100.00
13422;BME280;6782;55.904;13.396;2023-09-30T09:24:26;101345.66;;;17.07;100.00
13422;BME280;6782;55.904;13.396;2023-09-30T09:27:16;101322.94;;;17.19;100.00
13422;BME280;6782;55.904;13.396;2023-09-30T09:30:15;101290.25;;;17.15;100.00
13422;BME280;6782;55.904;13.396;2023-09-30T09:33:04;101277.22;;;17.08;100.00
13422;BME280;6782;55.904;13.396;2023-09-30T09:35:53;101260.25;;;16.88;100.00
13422;BME280;6782;55.904;13.396;2023-09-30T09:38:44;101254.50;;;16.77;100.00
13422;BME280;6782;55.904;13.396;2023-09-30T09:41:49;101229.19;;;16.44;100.00
13422;BME280;6782;55.904;13.396;2023-09-30T09:44:38;101233.59;;;16.45;100.00
13422;BME280;6782;55.904;13.396;2023-09-30T09:47:25;101225.63;;;16.67;100.00
13422;BME280;6782;55.904;13.396;2023-09-30T09:50:13;101216.88;;;16.85;100.00
13422;BME280;6782;55.904;13.396;2023-09-30T09:53:11;101212.66;;;16.79;100.00
13422;BME280;6782;55.904;13.396;2023-09-30T09:56:08;101210.41;;;17.12;100.00
13422;BME280;6782;55.904;13.396;2023-09-30T09:58:55;101209.94;;;17.43;100.00
13422;BME280;6782;55.904;13.396;2023-09-30T10:01:43;101208.88;;;17.27;100.00
13422;BME280;6782;55.904;13.396;2023-09-30T10:04:31;101192.34;;;16.99;100.00
13422;BME280;6782;55.904;13.396;2023-09-30T10:07:22;101195.22;;;16.72;100.00
13422;BME280;6782;55.904;13.396;2023-09-30T10:10:14;101194.34;;;16.50;100.00
13422;BME280;6782;55.904;13.396;2023-09-30T10:13:03;101198.72;;;16.53;100.00
13422;BME280;6782;55.904;13.396;2023-09-30T10:15:51;101204.91;;;16.53;100.00
13422;BME280;6782;55.904;13.396;2023-09-30T10:19:07;101193.22;;;16.34;100.00
13422;BME280;6782;55.904;13.396;2023-09-30T10:22:22;101203.88;;;16.34;100.00
13422;BME280;6782;55.904;13.396;2023-09-30T10:25:36;101213.81;;;16.52;100.00
13422;BME280;6782;55.904;13.396;2023-09-30T10:28:38;101231.16;;;16.84;100.00
13422;BME280;6782;55.904;13.396;2023-09-30T10:31:27;101243.78;;;17.21;100.00
13422;BME280;6782;55.904;13.396;2023-09-30T10:34:22;101227.91;;;16.98;100.00
13422;BME280;6782;55.904;13.396;2023-09-30T10:37:20;101220.06;;;17.15;100.00
13422;BME280;6782;55.904;13.396;2023-09-30T10:40:07;101220.53;;;17.44;100.00
13422;BME280;6782;55.904;13.396;2023-09-30T10:42:56;101225.53;;;17.72;100.00
13422;BME280;6782;55.904;13.396;2023-09-30T10:45:44;101203.91;;;17.78;100.00
13422;BME280;6782;55.904;13.396;2023-09-30T10:48:38;101205.31;;;17.87;100.00
13422;BME280;6782;55.904;13.396;2023-09-30T10:51:27;101189.28;;;17.28;100.00
13422;BME280;6782;55.904;13.396;2023-09-30T10:54:16;101203.41;;;17.30;100.00
13422;BME280;6782;55.904;13.396;2023-09-30T10:57:10;101199.06;;;16.87;100.00
13422;BME280;6782;55.904;13.396;2023-09-30T11:00:09;101205.88;;;16.72;100.00
13422;BME280;6782;55.904;13.396;2023-09-30T11:02:57;101188.88;;;16.32;100.00
13422;BME280;6782;55.904;13.396;2023-09-30T11:05:47;101195.75;;;16.37;100.00
13422;BME280;6782;55.904;13.396;2023-09-30T11:08:37;101200.03;;;16.41;100.00
13422;BME280;6782;55.904;13.396;2023-09-30T11:11:34;101205.59;;;16.35;100.00
13422;BME280;6782;55.904;13.396;2023-09-30T11:14:23;101215.38;;;16.35;100.00
13422;BME280;6782;55.904;13.396;2023-09-30T11:17:12;101228.13;;;16.71;100.00
13422;BME280;6782;55.904;13.396;2023-09-30T11:20:00;101229.41;;;17.05;100.00
13422;BME280;6782;55.904;13.396;2023-09-30T11:22:47;101225.28;;;17.38;100.00
13422;BME280;6782;55.904;13.396;2023-09-30T11:25:36;101203.28;;;17.33;100.00
13422;BME280;6782;55.904;13.396;2023-09-30T11:28:25;101196.66;;;17.62;100.00
13422;BME280;6782;55.904;13.396;2023-09-30T11:31:21;101197.41;;;17.65;100.00
13422;BME280;6782;55.904;13.396;2023-09-30T11:34:11;101195.56;;;17.86;100.00
13422;BME280;6782;55.904;13.396;2023-09-30T11:37:00;101196.19;;;17.72;100.00
13422;BME280;6782;55.904;13.396;2023-09-30T11:39:47;101182.31;;;17.84;100.00
13422;BME280;6782;55.904;13.396;2023-09-30T11:42:37;101195.84;;;17.98;100.00
13422;BME280;6782;55.904;13.396;2023-09-30T11:45:24;101173.13;;;17.71;100.00
13422;BME280;6782;55.904;13.396;2023-09-30T11:48:18;101181.75;;;17.58;100.00
13422;BME280;6782;55.904;13.396;2023-09-30T11:51:08;101180.59;;;17.63;100.00
13422;BME280;6782;55.904;13.396;2023-09-30T11:53:55;101176.31;;;17.59;100.00
13422;BME280;6782;55.904;13.396;2023-09-30T11:56:43;101182.66;;;17.57;100.00
13422;BME280;6782;55.904;13.396;2023-09-30T11:59:33;101165.66;;;17.39;100.00
13422;BME280;6782;55.904;13.396;2023-09-30T12:02:20;101188.59;;;17.43;100.00
13422;BME280;6782;55.904;13.396;2023-09-30T12:05:08;101197.19;;;17.49;100.00
13422;BME280;6782;55.904;13.396;2023-09-30T12:07:58;101177.94;;;17.43;100.00
13422;BME280;6782;55.904;13.396;2023-09-30T12:10:46;101173.41;;;17.25;100.00
13422;BME280;6782;55.904;13.396;2023-09-30T12:13:33;101179.94;;;17.38;100.00
13422;BME280;6782;55.904;13.396;2023-09-30T12:16:20;101198.31;;;17.64;100.00
13422;BME280;6782;55.904;13.396;2023-09-30T12:19:09;101193.41;;;17.55;100.00
13422;BME280;6782;55.904;13.396;2023-09-30T12:21:56;101191.84;;;17.70;100.00
13422;BME280;6782;55.904;13.396;2023-09-30T12:24:45;101186.50;;;17.70;100.00
13422;BME280;6782;55.904;13.396;2023-09-30T12:27:33;101198.63;;;17.58;100.00
13422;BME280;6782;55.904;13.396;2023-09-30T12:30:21;101201.81;;;17.66;100.00
13422;BME280;6782;55.904;13.396;2023-09-30T12:33:08;101213.66;;;17.79;100.00
13422;BME280;6782;55.904;13.396;2023-09-30T12:35:56;101205.56;;;17.81;100.00
13422;BME280;6782;55.904;13.396;2023-09-30T12:38:44;101198.38;;;18.01;100.00
13422;BME280;6782;55.904;13.396;2023-09-30T12:41:33;101185.91;;;18.21;100.00
13422;BME280;6782;55.904;13.396;2023-09-30T12:44:20;101172.38;;;18.24;100.00
13422;BME280;6782;55.904;13.396;2023-09-30T12:47:08;101169.94;;;18.38;100.00
13422;BME280;6782;55.904;13.396;2023-09-30T12:49:55;101162.44;;;18.08;100.00
13422;BME280;6782;55.904;13.396;2023-09-30T12:52:43;101141.97;;;17.72;100.00
13422;BME280;6782;55.904;13.396;2023-09-30T12:55:30;101149.59;;;17.98;100.00
13422;BME280;6782;55.904;13.396;2023-09-30T12:58:19;101171.75;;;18.19;100.00
13422;BME280;6782;55.904;13.396;2023-09-30T13:01:06;101147.84;;;18.15;100.00
13422;BME280;6782;55.904;13.396;2023-09-30T13:03:54;101144.25;;;18.17;100.00
13422;BME280;6782;55.904;13.396;2023-09-30T13:06:42;101132.66;;;18.18;100.00
13422;BME280;6782;55.904;13.396;2023-09-30T13:09:29;101123.69;;;18.19;100.00
13422;BME280;6782;55.904;13.396;2023-09-30T13:12:18;101129.47;;;18.28;100.00
13422;BME280;6782;55.904;13.396;2023-09-30T13:15:08;101150.84;;;18.45;100.00
13422;BME280;6782;55.904;13.396;2023-09-30T13:17:56;101158.06;;;18.62;100.00
13422;BME280;6782;55.904;13.396;2023-09-30T13:20:44;101123.81;;;18.34;100.00
13422;BME280;6782;55.904;13.396;2023-09-30T13:23:32;101142.59;;;18.33;100.00
13422;BME280;6782;55.904;13.396;2023-09-30T13:26:19;101130.06;;;18.52;100.00
13422;BME280;6782;55.904;13.396;2023-09-30T13:29:06;101082.56;;;18.23;100.00
13422;BME280;6782;55.904;13.396;2023-09-30T13:31:57;101103.69;;;18.27;100.00
13422;BME280;6782;55.904;13.396;2023-09-30T13:34:44;101101.94;;;18.26;100.00
13422;BME280;6782;55.904;13.396;2023-09-30T13:37:32;101109.59;;;18.34;100.00
13422;BME280;6782;55.904;13.396;2023-09-30T13:40:20;101092.75;;;18.14;100.00
13422;BME280;6782;55.904;13.396;2023-09-30T13:43:07;101134.25;;;18.39;100.00
13422;BME280;6782;55.904;13.396;2023-09-30T13:45:55;101083.09;;;18.12;100.00
13422;BME280;6782;55.904;13.396;2023-09-30T13:48:44;101186.38;;;18.66;100.00
13422;BME280;6782;55.904;13.396;2023-09-30T13:51:32;101120.16;;;18.18;100.00
13422;BME280;6782;55.904;13.396;2023-09-30T13:54:19;101107.91;;;18.14;100.00
13422;BME280;6782;55.904;13.396;2023-09-30T13:57:06;101092.75;;;18.14;100.00
13422;BME280;6782;55.904;13.396;2023-09-30T13:59:54;101044.88;;;17.93;100.00
13422;BME280;6782;55.904;13.396;2023-09-30T14:02:41;101046.66;;;18.11;100.00
13422;BME280;6782;55.904;13.396;2023-09-30T14:05:30;101032.91;;;18.01;100.00
13422;BME280;6782;55.904;13.396;2023-09-30T14:08:17;101035.91;;;18.12;100.00
13422;BME280;6782;55.904;13.396;2023-09-30T14:11:05;101084.91;;;18.29;100.00
13422;BME280;6782;55.904;13.396;2023-09-30T14:13:52;101048.19;;;17.98;100.00
13422;BME280;6782;55.904;13.396;2023-09-30T14:16:39;101029.59;;;17.96;100.00
13422;BME280;6782;55.904;13.396;2023-09-30T14:19:26;100982.56;;;17.77;100.00
13422;BME280;6782;55.904;13.396;2023-09-30T14:22:16;101009.75;;;17.66;100.00
13422;BME280;6782;55.904;13.396;2023-09-30T14:25:04;101085.09;;;17.71;100.00
13422;BME280;6782;55.904;13.396;2023-09-30T14:27:51;101082.81;;;17.43;100.00
13422;BME280;6782;55.904;13.396;2023-09-30T14:30:39;101191.66;;;17.74;100.00
13422;BME280;6782;55.904;13.396;2023-09-30T14:33:26;101174.53;;;17.60;100.00
13422;BME280;6782;55.904;13.396;2023-09-30T14:36:14;101174.63;;;17.38;100.00
13422;BME280;6782;55.904;13.396;2023-09-30T14:39:03;101192.50;;;17.56;100.00
13422;BME280;6782;55.904;13.396;2023-09-30T14:41:51;101144.34;;;17.39;100.00